Time;durP1;ratioP1;P1;durP2;ratioP2;P2;SDS_P1;SDS_P2;PMS_P1;PMS_P2;Temp;Humidity;BMP_temperature;BMP_pressure;BME280_temperature;BME280_humidity;BME280_pressure;Samples;Min_cycle;Max_cycle;Signal;HPM_P1;HPM_P2
2021/12/25 00:00:57;;;;;;;86.13;58.47;;;12.10;99.90;;;;;;5049742;28;20037;-70
2021/12/25 00:04:02;;;;;;;82.60;57.72;;;12.00;99.90;;;;;;5049934;28;20044;-70
2021/12/25 00:07:05;;;;;;;94.22;59.60;;;12.10;99.90;;;;;;5049939;28;20044;-70
2021/12/25 00:10:10;;;;;;;89.40;58.17;;;12.10;99.90;;;;;;5050076;28;20072;-70
2021/12/25 00:13:14;;;;;;;87.93;57.38;;;12.10;99.90;;;;;;5051225;28;20396;-70
2021/12/25 00:16:18;;;;;;;74.90;52.70;;;12.10;99.90;;;;;;5053416;28;20060;-70
2021/12/25 00:19:22;;;;;;;83.05;55.17;;;12.20;99.90;;;;;;5053405;28;20044;-70
2021/12/25 00:22:26;;;;;;;76.32;52.50;;;12.10;99.90;;;;;;5053148;28;20064;-70
2021/12/25 00:25:35;;;;;;;71.68;46.47;;;12.10;99.90;;;;;;5053233;28;20037;-70
2021/12/25 00:31:51;;;;;;;64.60;45.72;;;12.20;99.90;;;;;;5052772;28;20052;-70
2021/12/25 00:34:55;;;;;;;;;;;12.20;99.90;;;;;;5052739;28;20075;-70
2021/12/25 00:37:59;;;;;;;64.40;43.28;;;12.20;99.90;;;;;;5053106;28;19912;-70
2021/12/25 00:41:04;;;;;;;65.65;44.53;;;12.20;99.90;;;;;;5052855;28;20040;-70
2021/12/25 00:44:08;;;;;;;63.13;42.92;;;12.20;99.90;;;;;;5053036;28;20413;-70
2021/12/25 00:47:12;;;;;;;60.70;37.13;;;12.20;99.90;;;;;;5051903;28;20059;-70
2021/12/25 00:50:17;;;;;;;55.88;36.05;;;12.20;99.90;;;;;;5052687;28;20048;-70
2021/12/25 00:53:21;;;;;;;58.08;39.22;;;12.20;99.90;;;;;;5051851;28;20167;-70
2021/12/25 00:56:25;;;;;;;60.83;38.78;;;12.20;99.90;;;;;;5052625;28;20040;-70
2021/12/25 00:59:29;;;;;;;60.38;42.28;;;12.20;99.90;;;;;;5052586;28;20052;-70
2021/12/25 01:02:33;;;;;;;60.17;39.80;;;12.20;99.90;;;;;;5051451;28;20051;-70
2021/12/25 01:05:37;;;;;;;59.63;39.38;;;12.20;99.90;;;;;;5051125;28;20047;-70
2021/12/25 01:08:41;;;;;;;60.33;38.80;;;12.20;99.90;;;;;;5051188;28;20052;-70
2021/12/25 01:11:48;;;;;;;62.83;38.13;;;12.30;99.90;;;;;;5051335;28;20048;-70
2021/12/25 01:14:58;;;;;;;63.72;44.05;;;12.30;99.90;;;;;;5051456;28;20396;-70
2021/12/25 01:34:26;;;;;;;69.43;46.17;;;12.20;99.90;;;;;;5051097;28;20044;-70
2021/12/25 01:38:01;;;;;;;80.38;46.50;;;12.10;99.90;;;;;;5052383;28;20044;-70
2021/12/25 01:48:42;;;;;;;64.40;42.30;;;12.20;99.90;;;;;;5050948;28;20040;-70
2021/12/25 01:51:46;;;;;;;76.32;51.30;;;12.10;99.90;;;;;;5051418;28;20048;-70
2021/12/25 01:54:51;;;;;;;74.82;49.15;;;12.10;99.90;;;;;;5050958;28;20048;-70
2021/12/25 01:57:57;;;;;;;91.80;54.05;;;12.10;99.90;;;;;;5050608;28;20040;-70
2021/12/25 02:01:03;;;;;;;75.03;52.03;;;12.10;99.90;;;;;;5050847;28;20389;-70
2021/12/25 02:04:07;;;;;;;73.28;50.70;;;12.00;99.90;;;;;;5051776;28;20064;-70
2021/12/25 02:07:13;;;;;;;66.85;46.45;;;12.00;99.90;;;;;;5051527;28;20048;-70
2021/12/25 02:10:18;;;;;;;64.20;44.72;;;12.10;99.90;;;;;;5050439;28;20052;-70
2021/12/25 02:13:25;;;;;;;64.60;43.08;;;12.00;99.90;;;;;;5050473;28;20044;-70
2021/12/25 02:16:41;;;;;;;62.85;42.10;;;12.10;99.90;;;;;;5050220;28;20040;-70
2021/12/25 02:19:54;;;;;;;56.72;37.85;;;12.10;99.90;;;;;;5050338;28;20060;-70
2021/12/25 02:23:02;;;;;;;51.47;35.88;;;12.10;99.90;;;;;;5050151;28;20067;-70
2021/12/25 02:26:06;;;;;;;52.97;35.78;;;12.10;99.90;;;;;;5050140;28;20397;-70
2021/12/25 02:29:11;;;;;;;50.50;33.92;;;12.10;99.90;;;;;;5049920;28;20052;-70
2021/12/25 02:32:14;;;;;;;51.67;33.70;;;12.10;99.90;;;;;;5050022;28;20056;-70
2021/12/25 02:35:22;;;;;;;46.28;31.58;;;12.10;99.90;;;;;;5048865;28;20060;-70
2021/12/25 02:38:26;;;;;;;43.58;28.98;;;12.00;99.90;;;;;;5050134;28;20040;-70
2021/12/25 02:41:30;;;;;;;37.85;26.73;;;12.00;99.90;;;;;;5049947;28;20044;-70
2021/12/25 02:44:34;;;;;;;44.22;28.52;;;12.00;99.90;;;;;;5049807;28;20044;-70
2021/12/25 02:47:42;;;;;;;44.47;27.73;;;12.00;99.90;;;;;;5049759;28;20048;-70
2021/12/25 02:50:48;;;;;;;48.85;30.45;;;12.00;99.90;;;;;;5050034;28;20052;-70
2021/12/25 02:53:53;;;;;;;43.15;27.27;;;12.00;99.90;;;;;;5049952;28;20044;-70
2021/12/25 02:56:57;;;;;;;38.80;26.90;;;12.00;99.90;;;;;;5050740;28;20044;-70
2021/12/25 03:00:01;;;;;;;37.72;25.13;;;12.00;99.90;;;;;;5049960;28;20036;-70
2021/12/25 03:03:07;;;;;;;42.83;24.35;;;12.00;99.90;;;;;;5049742;28;20044;-70
2021/12/25 03:06:12;;;;;;;33.65;22.10;;;12.10;99.90;;;;;;5049933;28;20036;-70
2021/12/25 03:09:16;;;;;;;31.10;19.75;;;12.00;99.90;;;;;;5049714;28;20056;-70
2021/12/25 03:12:30;;;;;;;36.58;20.00;;;12.00;99.90;;;;;;5049625;28;20044;-70
2021/12/25 03:15:47;;;;;;;25.75;16.67;;;12.10;99.90;;;;;;5049564;28;20051;-70
2021/12/25 03:18:54;;;;;;;25.45;17.40;;;12.10;99.90;;;;;;5049511;28;20044;-70
2021/12/25 03:22:02;;;;;;;35.53;19.67;;;12.10;99.90;;;;;;5050362;28;20044;-70
2021/12/25 03:25:07;;;;;;;34.78;22.17;;;12.10;99.90;;;;;;5050365;28;20044;-70
2021/12/25 03:28:11;;;;;;;35.33;22.95;;;12.10;99.90;;;;;;5050274;28;20052;-70
2021/12/25 03:31:18;;;;;;;33.95;22.63;;;12.00;99.90;;;;;;5049392;28;20385;-70
2021/12/25 03:34:23;;;;;;;40.50;24.88;;;12.00;99.90;;;;;;5049454;28;20052;-70
2021/12/25 03:37:27;;;;;;;40.05;24.13;;;12.00;99.90;;;;;;5049670;28;20047;-70
2021/12/25 03:40:31;;;;;;;40.22;25.88;;;12.10;99.90;;;;;;5049538;28;20071;-70
2021/12/25 03:43:39;;;;;;;46.28;26.85;;;12.00;99.90;;;;;;5050319;28;20040;-70
2021/12/25 03:46:43;;;;;;;40.42;25.05;;;11.90;99.90;;;;;;5050839;28;20051;-70
2021/12/25 03:53:24;;;;;;;37.40;24.85;;;11.90;99.90;;;;;;5053051;28;20048;-70
2021/12/25 04:00:00;;;;;;;37.53;23.35;;;11.80;99.90;;;;;;5053048;28;20063;-70
2021/12/25 04:03:09;;;;;;;37.75;21.63;;;11.80;99.90;;;;;;5052816;28;20068;-70
2021/12/25 04:06:20;;;;;;;29.38;20.27;;;11.90;99.90;;;;;;5053805;28;20112;-70
2021/12/25 04:09:26;;;;;;;33.58;21.60;;;11.80;99.90;;;;;;5052715;28;20400;-70
2021/12/25 04:12:31;;;;;;;34.88;21.90;;;11.80;99.90;;;;;;5052833;28;20052;-70
2021/12/25 04:15:35;;;;;;;31.30;20.48;;;11.80;99.90;;;;;;5052716;28;20112;-70
2021/12/25 04:18:40;;;;;;;36.40;21.67;;;11.80;99.90;;;;;;5053380;28;20048;-70
2021/12/25 04:24:54;;;;;;;33.15;21.80;;;11.80;99.90;;;;;;5052597;28;20044;-70
2021/12/25 04:28:05;;;;;;;31.27;21.02;;;11.80;99.90;;;;;;5052337;28;20086;-70
2021/12/25 05:05:02;;;;;;;36.72;21.90;;;11.60;99.90;;;;;;5052429;28;20055;-70
2021/12/25 05:08:12;;;;;;;36.15;22.50;;;11.70;99.90;;;;;;5051704;28;20044;-70
2021/12/25 05:11:16;;;;;;;38.05;22.58;;;11.70;99.90;;;;;;5040215;28;20044;-70
2021/12/25 05:14:20;;;;;;;36.47;21.63;;;11.80;99.90;;;;;;5051772;28;20044;-70
2021/12/25 05:17:24;;;;;;;31.70;20.02;;;11.80;99.90;;;;;;5052681;28;20039;-70
2021/12/25 05:20:28;;;;;;;13.35;8.60;;;11.80;99.90;;;;;;5051423;28;20044;-70
2021/12/25 05:23:32;;;;;;;21.38;13.10;;;11.90;99.90;;;;;;5051431;28;20044;-70
2021/12/25 05:26:36;;;;;;;18.88;12.93;;;12.00;99.90;;;;;;5051618;28;20048;-70
2021/12/25 05:29:45;;;;;;;15.70;10.55;;;12.10;99.90;;;;;;5051494;28;20119;-70
2021/12/25 05:32:50;;;;;;;19.02;12.45;;;12.10;99.90;;;;;;5051200;28;20040;-70
2021/12/25 05:36:28;;;;;;;13.65;8.63;;;12.10;99.90;;;;;;5051203;28;20056;-70
2021/12/25 05:40:01;;;;;;;9.60;5.53;;;12.20;99.90;;;;;;5051043;28;20406;-70
2021/12/25 05:43:08;;;;;;;9.85;5.55;;;12.30;99.90;;;;;;5051135;28;20294;-70
2021/12/25 05:46:12;;;;;;;11.48;6.75;;;12.40;99.90;;;;;;5051351;28;20405;-70
2021/12/25 05:49:20;;;;;;;12.38;7.07;;;12.50;99.90;;;;;;5050743;28;20594;-70
2021/12/25 05:52:32;;;;;;;17.05;6.07;;;12.50;99.90;;;;;;5051585;28;20046;-70
2021/12/25 05:55:41;;;;;;;15.23;8.60;;;12.50;99.90;;;;;;5051691;28;20143;-70
2021/12/25 05:58:58;;;;;;;14.02;8.43;;;12.50;99.90;;;;;;5051597;28;20388;-70
2021/12/25 06:02:21;;;;;;;15.52;7.38;;;12.50;99.90;;;;;;5051423;28;20051;-70
2021/12/25 06:05:26;;;;;;;15.85;7.57;;;12.50;99.90;;;;;;5050520;28;20468;-70
2021/12/25 06:08:30;;;;;;;14.32;8.50;;;12.50;99.90;;;;;;5050792;28;20067;-70
2021/12/25 06:11:38;;;;;;;16.13;8.05;;;12.50;99.90;;;;;;5051376;28;20405;-70
2021/12/25 06:14:44;;;;;;;12.10;8.10;;;12.40;99.90;;;;;;5050601;28;20043;-70
2021/12/25 06:17:51;;;;;;;21.70;9.50;;;12.40;99.90;;;;;;5050277;28;20040;-70
2021/12/25 06:21:09;;;;;;;17.67;9.23;;;12.40;99.90;;;;;;5049974;28;20068;-70
2021/12/25 06:24:33;;;;;;;14.38;8.93;;;12.40;99.90;;;;;;5050854;28;20043;-70
2021/12/25 06:28:15;;;;;;;11.95;8.18;;;12.30;99.90;;;;;;5048641;28;20044;-70
2021/12/25 06:31:33;;;;;;;13.55;8.63;;;12.30;99.90;;;;;;5037081;28;20183;-69
2021/12/25 06:34:47;;;;;;;14.50;8.68;;;12.30;99.90;;;;;;5049955;28;20072;-70
2021/12/25 06:38:02;;;;;;;16.95;8.77;;;12.30;99.90;;;;;;5050261;28;20036;-70
2021/12/25 06:41:32;;;;;;;19.02;8.75;;;12.20;99.90;;;;;;5050965;28;20048;-70
2021/12/25 06:44:37;;;;;;;16.40;8.25;;;12.20;99.90;;;;;;5049924;28;20048;-70
2021/12/25 06:47:41;;;;;;;14.30;8.88;;;12.20;99.90;;;;;;5049992;28;20040;-70
2021/12/25 06:50:50;;;;;;;14.38;8.80;;;12.20;99.90;;;;;;5049608;28;20055;-70
2021/12/25 06:54:20;;;;;;;18.55;9.57;;;12.30;99.90;;;;;;5050369;28;20052;-70
2021/12/25 06:57:57;;;;;;;13.65;8.23;;;12.20;99.90;;;;;;5050806;28;20400;-70
2021/12/25 07:01:01;;;;;;;14.88;8.77;;;12.30;99.90;;;;;;5050552;28;20432;-70
2021/12/25 07:04:09;;;;;;;17.08;8.85;;;12.30;99.90;;;;;;5049792;28;20100;-70
2021/12/25 07:07:32;;;;;;;13.27;8.90;;;12.30;99.90;;;;;;5050557;28;20385;-70
2021/12/25 07:11:02;;;;;;;14.60;9.00;;;12.30;99.90;;;;;;5050485;28;20063;-70
2021/12/25 07:14:25;;;;;;;10.18;7.10;;;12.30;99.90;;;;;;5050449;28;20520;-70
2021/12/25 07:17:44;;;;;;;11.93;5.95;;;12.30;99.90;;;;;;5049726;28;20400;-71
2021/12/25 07:21:07;;;;;;;10.65;6.63;;;12.50;99.90;;;;;;5050264;28;20044;-70
2021/12/25 07:24:33;;;;;;;18.48;8.00;;;12.50;99.90;;;;;;5054336;28;20047;-70
2021/12/25 07:28:07;;;;;;;17.25;7.28;;;12.60;99.90;;;;;;5052767;28;20048;-70
2021/12/25 07:31:11;;;;;;;13.65;8.57;;;12.60;99.90;;;;;;5054054;28;20052;-70
2021/12/25 07:34:16;;;;;;;12.80;6.85;;;12.60;99.90;;;;;;5054257;28;20052;-70
2021/12/25 07:37:20;;;;;;;10.77;5.20;;;12.70;99.90;;;;;;5054575;28;20373;-70
2021/12/25 07:40:24;;;;;;;14.30;5.68;;;12.80;99.90;;;;;;5054360;28;20052;-70
2021/12/25 07:43:28;;;;;;;8.05;4.45;;;12.80;99.90;;;;;;5053925;28;20048;-70
2021/12/25 07:46:51;;;;;;;7.75;4.95;;;12.90;99.90;;;;;;5052987;28;20409;-70
2021/12/25 07:49:56;;;;;;;6.72;4.60;;;13.00;99.90;;;;;;5053646;28;20290;-70
2021/12/25 07:53:00;;;;;;;11.10;5.32;;;13.10;99.90;;;;;;5054306;28;20389;-70
2021/12/25 07:56:04;;;;;;;9.63;5.20;;;13.20;99.90;;;;;;5041417;28;20059;-70
2021/12/25 07:59:09;;;;;;;9.55;4.93;;;13.30;99.90;;;;;;5053707;28;20060;-70
2021/12/25 08:02:13;;;;;;;8.60;4.68;;;13.40;99.90;;;;;;5053728;28;20048;-70
2021/12/25 08:05:17;;;;;;;6.97;4.85;;;13.50;99.90;;;;;;5053747;28;20055;-70
2021/12/25 08:08:21;;;;;;;5.57;3.88;;;13.60;99.90;;;;;;5053610;28;20040;-69
2021/12/25 08:11:25;;;;;;;13.32;5.20;;;13.70;99.90;;;;;;5053641;28;20052;-69
2021/12/25 08:14:30;;;;;;;6.82;4.07;;;13.80;99.90;;;;;;5053270;28;20043;-69
2021/12/25 08:17:34;;;;;;;8.13;4.03;;;13.90;99.90;;;;;;5053232;28;20048;-69
2021/12/25 08:21:04;;;;;;;10.98;3.92;;;14.00;99.90;;;;;;5052668;28;20068;-70
2021/12/25 08:24:27;;;;;;;7.20;4.20;;;14.10;99.70;;;;;;5053085;28;20044;-69
2021/12/25 08:27:50;;;;;;;8.13;4.70;;;14.20;99.30;;;;;;5053102;28;20048;-70
2021/12/25 08:31:07;;;;;;;10.63;3.97;;;14.30;99.40;;;;;;5052926;28;20056;-70
2021/12/25 08:34:43;;;;;;;9.48;4.53;;;14.40;99.40;;;;;;5051700;28;20047;-69
2021/12/25 08:37:55;;;;;;;10.48;3.70;;;14.50;98.60;;;;;;5051954;28;20055;-69
2021/12/25 08:40:59;;;;;;;7.70;3.65;;;14.60;97.80;;;;;;5052415;28;20060;-70
2021/12/25 08:44:29;;;;;;;7.20;3.00;;;14.70;97.60;;;;;;5050987;28;20056;-70
2021/12/25 08:47:36;;;;;;;6.40;3.35;;;14.70;97.00;;;;;;5051237;28;20473;-70
2021/12/25 08:50:43;;;;;;;7.20;3.08;;;14.90;96.70;;;;;;5052582;28;20060;-70
2021/12/25 08:53:46;;;;;;;8.57;3.03;;;15.00;96.30;;;;;;5052693;28;20421;-69
2021/12/25 08:56:50;;;;;;;11.23;4.00;;;15.20;95.80;;;;;;5052443;28;20048;-68
2021/12/25 08:59:56;;;;;;;13.23;4.00;;;15.30;95.50;;;;;;5052341;28;20036;-71
2021/12/25 09:03:01;;;;;;;8.30;3.30;;;15.40;95.40;;;;;;5052236;28;20195;-71
2021/12/25 09:06:05;;;;;;;4.32;2.72;;;15.50;95.20;;;;;;5052285;28;20504;-71
2021/12/25 09:09:09;;;;;;;6.75;2.90;;;15.70;94.80;;;;;;5052340;28;20067;-70
2021/12/25 09:12:15;;;;;;;7.88;3.28;;;15.90;94.30;;;;;;5052235;28;20048;-69
2021/12/25 09:15:19;;;;;;;6.93;2.85;;;16.10;93.50;;;;;;5052232;28;20044;-70
2021/12/25 09:18:23;;;;;;;9.50;2.85;;;16.20;93.10;;;;;;5052343;28;20040;-67
2021/12/25 09:21:27;;;;;;;5.88;2.67;;;16.10;93.00;;;;;;5051074;28;20040;-69
2021/12/25 09:24:31;;;;;;;6.22;3.00;;;15.90;93.00;;;;;;5052431;28;20040;-67
2021/12/25 09:27:35;;;;;;;6.18;3.10;;;15.80;93.50;;;;;;5052361;28;20495;-67
2021/12/25 09:30:42;;;;;;;6.40;3.20;;;15.70;93.40;;;;;;5052055;28;20393;-67
2021/12/25 09:33:46;;;;;;;7.30;3.63;;;15.60;93.60;;;;;;5051963;28;20052;-68
2021/12/25 09:36:50;;;;;;;5.30;3.20;;;15.60;93.70;;;;;;5052053;28;20040;-69
2021/12/25 09:39:54;;;;;;;6.72;3.47;;;15.90;93.40;;;;;;5051646;28;20048;-69
2021/12/25 09:42:58;;;;;;;6.88;3.45;;;16.10;92.70;;;;;;5051597;28;20298;-67
2021/12/25 09:46:02;;;;;;;6.43;3.55;;;16.30;92.20;;;;;;5051453;28;20040;-69
2021/12/25 09:49:06;;;;;;;8.65;3.55;;;16.20;92.00;;;;;;5051736;28;20511;-67
2021/12/25 09:52:11;;;;;;;10.10;4.15;;;16.10;92.40;;;;;;5051915;28;20310;-69
2021/12/25 09:55:16;;;;;;;9.07;3.70;;;16.00;92.50;;;;;;5051856;28;20397;-69
2021/12/25 09:58:21;;;;;;;9.55;3.90;;;15.90;92.70;;;;;;5051407;28;20441;-69
2021/12/25 10:01:38;;;;;;;7.28;3.22;;;15.80;93.00;;;;;;5051451;28;20044;-69
2021/12/25 10:04:41;;;;;;;9.98;3.58;;;15.80;93.10;;;;;;5051564;28;20051;-69
2021/12/25 10:07:45;;;;;;;6.88;3.42;;;15.70;93.20;;;;;;5051433;28;20048;-69
2021/12/25 10:10:55;;;;;;;11.20;4.03;;;15.70;93.10;;;;;;5051535;28;20060;-69
2021/12/25 10:13:59;;;;;;;6.55;3.53;;;15.70;93.20;;;;;;5051279;28;20095;-69
2021/12/25 10:17:22;;;;;;;6.65;3.00;;;15.70;92.60;;;;;;5051226;28;20048;-67
2021/12/25 10:20:31;;;;;;;11.25;3.65;;;15.70;92.40;;;;;;5051190;28;20032;-69
2021/12/25 10:23:36;;;;;;;6.45;3.30;;;15.70;92.30;;;;;;5051274;28;20116;-69
2021/12/25 10:26:42;;;;;;;10.02;3.45;;;15.70;92.40;;;;;;5051126;28;20040;-69
2021/12/25 10:29:47;;;;;;;7.80;3.67;;;15.70;92.10;;;;;;5050801;28;20052;-69
2021/12/25 10:32:52;;;;;;;5.60;3.10;;;15.70;92.30;;;;;;5050245;28;20044;-67
2021/12/25 10:35:59;;;;;;;8.52;3.70;;;15.70;91.70;;;;;;5050675;28;20048;-69
2021/12/25 10:39:11;;;;;;;6.40;3.30;;;15.80;91.90;;;;;;5050997;28;20040;-69
2021/12/25 10:42:21;;;;;;;7.15;3.05;;;15.70;91.70;;;;;;5050901;28;20040;-69
2021/12/25 10:45:28;;;;;;;7.85;2.70;;;15.70;91.40;;;;;;5050082;28;20507;-69
2021/12/25 10:48:32;;;;;;;10.55;3.35;;;15.70;91.30;;;;;;5050980;28;20044;-69
2021/12/25 10:51:36;;;;;;;8.48;2.90;;;15.70;91.50;;;;;;5050517;28;20060;-69
2021/12/25 10:54:50;;;;;;;7.65;2.80;;;15.70;91.70;;;;;;5050724;28;20056;-69
2021/12/25 10:57:59;;;;;;;5.28;2.90;;;15.70;91.20;;;;;;5050179;28;20048;-69
2021/12/25 11:01:06;;;;;;;7.88;3.17;;;15.70;91.10;;;;;;5050464;28;20040;-69
2021/12/25 11:04:37;;;;;;;8.63;3.20;;;15.70;91.20;;;;;;5050635;28;20063;-69
2021/12/25 11:07:41;;;;;;;6.80;3.47;;;15.70;90.90;;;;;;5051121;28;20051;-69
2021/12/25 11:10:50;;;;;;;7.40;3.67;;;15.70;91.10;;;;;;5050205;28;20400;-69
2021/12/25 11:13:57;;;;;;;8.48;4.00;;;15.70;91.30;;;;;;5050485;28;20048;-66
2021/12/25 11:17:26;;;;;;;6.97;3.38;;;15.70;91.40;;;;;;5050609;28;20492;-68
2021/12/25 11:20:34;;;;;;;6.55;3.55;;;15.80;91.00;;;;;;5050371;28;20036;-68
2021/12/25 11:23:38;;;;;;;6.97;3.42;;;15.90;90.60;;;;;;5050181;28;20047;-69
2021/12/25 11:26:45;;;;;;;8.10;3.63;;;15.90;90.40;;;;;;5050302;28;20604;-69
2021/12/25 11:29:49;;;;;;;5.78;3.45;;;16.20;90.60;;;;;;5050089;28;20060;-68
2021/12/25 11:32:54;;;;;;;5.43;3.42;;;16.30;90.50;;;;;;5050185;28;20392;-68
2021/12/25 11:36:02;;;;;;;9.35;3.35;;;16.30;90.40;;;;;;5050412;28;20056;-68
2021/12/25 11:39:07;;;;;;;7.25;3.95;;;16.30;90.30;;;;;;5049863;28;20056;-69
2021/12/25 11:42:12;;;;;;;7.50;4.20;;;16.40;90.20;;;;;;5050246;28;20044;-68
2021/12/25 11:45:21;;;;;;;8.88;3.88;;;16.50;89.70;;;;;;5050120;28;20044;-68
2021/12/25 11:48:25;;;;;;;8.10;4.40;;;16.50;88.90;;;;;;5050533;28;20053;-69
2021/12/25 11:51:30;;;;;;;5.70;3.85;;;16.50;90.20;;;;;;5050217;28;20056;-69
2021/12/25 11:55:11;;;;;;;9.05;3.58;;;16.50;88.70;;;;;;5050107;28;20063;-68
2021/12/25 11:58:45;;;;;;;9.32;4.95;;;16.50;88.30;;;;;;5050362;28;20044;-68
2021/12/25 12:01:51;;;;;;;10.73;4.50;;;16.60;89.50;;;;;;5050078;28;20044;-68
2021/12/25 12:05:17;;;;;;;9.07;4.03;;;16.60;88.50;;;;;;5050173;28;20048;-68
2021/12/25 12:08:21;;;;;;;9.93;4.72;;;16.60;88.80;;;;;;5051297;28;20420;-68
2021/12/25 12:12:03;;;;;;;8.05;4.22;;;16.60;89.30;;;;;;5053064;28;20060;-69
2021/12/25 12:15:47;;;;;;;10.73;5.35;;;16.60;90.10;;;;;;5052991;28;20623;-68
2021/12/25 12:19:36;;;;;;;8.32;4.07;;;16.60;89.70;;;;;;5053580;28;20392;-68
2021/12/25 12:26:01;;;;;;;9.05;4.22;;;16.60;88.90;;;;;;5053512;28;20067;-68
2021/12/25 12:29:05;;;;;;;8.13;3.50;;;16.50;88.90;;;;;;5053408;28;20491;-68
2021/12/25 12:32:18;;;;;;;9.23;4.18;;;16.50;89.00;;;;;;5053421;28;20059;-68
2021/12/25 12:35:34;;;;;;;15.90;4.97;;;16.40;89.50;;;;;;5053178;28;20060;-68
2021/12/25 12:38:44;;;;;;;8.18;3.85;;;16.40;89.90;;;;;;5053231;28;20052;-68
2021/12/25 12:41:53;;;;;;;7.57;3.92;;;16.30;90.10;;;;;;5053118;28;20044;-68
2021/12/25 12:45:14;;;;;;;9.88;3.60;;;16.30;90.10;;;;;;5052912;28;20048;-68
2021/12/25 12:48:19;;;;;;;;;;;16.30;89.60;;;;;;5053526;28;20496;-68
2021/12/25 12:51:23;;;;;;;10.73;4.18;;;16.30;90.10;;;;;;5052828;28;19917;-68
2021/12/25 12:54:44;;;;;;;8.00;4.28;;;16.20;89.80;;;;;;5053051;28;20044;-68
2021/12/25 12:57:48;;;;;;;12.02;4.43;;;16.20;90.00;;;;;;5053017;28;20048;-68
2021/12/25 13:00:56;;;;;;;10.07;4.57;;;16.20;89.80;;;;;;5053033;28;20044;-68
2021/12/25 13:04:02;;;;;;;11.13;4.65;;;16.20;89.90;;;;;;5053687;28;20048;-68
2021/12/25 13:07:13;;;;;;;6.43;3.97;;;16.20;90.00;;;;;;5052789;28;20396;-67
2021/12/25 13:11:01;;;;;;;9.07;4.25;;;16.20;90.20;;;;;;5053028;28;20064;-67
2021/12/25 13:13:57;;;;;;;13.50;4.32;;;16.20;90.00;;;;;;5052726;28;20531;-68
2021/12/25 13:17:07;;;;;;;5.85;3.80;;;16.20;90.10;;;;;;5052685;28;20048;-68
2021/12/25 13:20:11;;;;;;;7.70;4.50;;;16.10;90.00;;;;;;5051706;28;20043;-67
2021/12/25 13:23:18;;;;;;;10.68;4.00;;;16.10;90.00;;;;;;5052839;28;20059;-68
2021/12/25 13:26:31;;;;;;;9.35;3.92;;;16.10;89.60;;;;;;5052349;28;20048;-68
2021/12/25 13:29:35;;;;;;;14.68;4.43;;;16.00;89.30;;;;;;5052193;28;20381;-67
2021/12/25 13:32:39;;;;;;;8.40;4.45;;;15.90;89.50;;;;;;5052288;28;20056;-67
2021/12/25 13:35:43;;;;;;;7.40;4.20;;;15.90;90.00;;;;;;5051966;28;20054;-67
2021/12/25 13:38:51;;;;;;;10.57;4.88;;;15.80;89.90;;;;;;5052552;28;20055;-69
2021/12/25 13:42:06;;;;;;;12.30;4.70;;;15.80;89.50;;;;;;5051960;28;20040;-69
2021/12/25 13:45:10;;;;;;;9.75;4.30;;;15.70;89.50;;;;;;5052363;28;20369;-69
2021/12/25 13:48:14;;;;;;;8.40;5.05;;;15.70;89.60;;;;;;5052290;28;20043;-69
2021/12/25 13:51:18;;;;;;;8.13;4.38;;;15.60;89.70;;;;;;5051815;28;20075;-68
2021/12/25 13:54:23;;;;;;;8.52;4.75;;;15.60;89.70;;;;;;5052005;28;20388;-69
2021/12/25 13:57:29;;;;;;;8.52;4.22;;;15.60;90.00;;;;;;5051822;28;20044;-69
2021/12/25 14:00:43;;;;;;;10.40;4.50;;;15.50;89.80;;;;;;5051567;28;20047;-69
2021/12/25 14:03:47;;;;;;;14.70;6.28;;;15.50;90.00;;;;;;5051581;28;20060;-69
2021/12/25 14:06:51;;;;;;;8.60;4.63;;;15.50;90.00;;;;;;5051841;28;20511;-69
2021/12/25 14:09:55;;;;;;;6.93;4.20;;;15.40;90.10;;;;;;5051473;28;20043;-69
2021/12/25 14:13:02;;;;;;;8.00;4.22;;;15.40;90.20;;;;;;5051589;28;20052;-69
2021/12/25 14:16:06;;;;;;;6.28;4.88;;;15.40;90.10;;;;;;5050640;28;20052;-69
2021/12/25 14:19:13;;;;;;;10.55;5.10;;;15.30;90.20;;;;;;5051413;28;20044;-69
2021/12/25 14:22:20;;;;;;;7.55;4.88;;;15.30;90.40;;;;;;5050488;28;20047;-69
2021/12/25 14:25:27;;;;;;;8.23;5.10;;;15.30;90.50;;;;;;5051423;28;20127;-67
2021/12/25 14:28:35;;;;;;;9.23;4.72;;;15.30;90.60;;;;;;5051461;28;20504;-69
2021/12/25 14:31:42;;;;;;;9.70;5.18;;;15.30;90.70;;;;;;5050251;28;20055;-69
2021/12/25 14:34:46;;;;;;;14.43;6.00;;;15.30;90.80;;;;;;5051063;28;20044;-69
2021/12/25 14:37:56;;;;;;;10.93;6.22;;;15.30;90.80;;;;;;5051161;28;20044;-69
2021/12/25 14:40:59;;;;;;;15.23;5.60;;;15.30;90.80;;;;;;5051223;28;20060;-69
2021/12/25 14:44:21;;;;;;;14.48;6.05;;;15.30;91.00;;;;;;5051077;28;20052;-69
2021/12/25 14:47:25;;;;;;;12.15;5.28;;;15.30;91.10;;;;;;5051177;28;20397;-69
2021/12/25 14:50:34;;;;;;;14.10;6.50;;;15.20;90.90;;;;;;5051142;28;20408;-69
2021/12/25 14:53:48;;;;;;;12.40;6.45;;;15.20;91.10;;;;;;5050871;28;20417;-69
2021/12/25 14:56:55;;;;;;;13.32;7.35;;;15.20;91.10;;;;;;5050687;28;20052;-66
2021/12/25 15:00:00;;;;;;;10.93;6.63;;;15.20;91.10;;;;;;5050761;28;20048;-69
2021/12/25 15:03:23;;;;;;;11.50;6.57;;;15.20;91.20;;;;;;5050820;28;20076;-69
2021/12/25 15:06:27;;;;;;;13.27;8.73;;;15.10;91.20;;;;;;5051106;28;20040;-69
2021/12/25 15:09:42;;;;;;;14.80;7.72;;;15.10;91.40;;;;;;5050632;28;20044;-69
2021/12/25 15:12:46;;;;;;;9.25;6.63;;;15.10;91.50;;;;;;5050734;28;20068;-69
2021/12/25 15:15:58;;;;;;;15.65;7.30;;;15.10;91.50;;;;;;5050676;28;20444;-69
2021/12/25 15:19:02;;;;;;;15.82;8.38;;;15.10;91.60;;;;;;5050553;28;20048;-69
2021/12/25 15:22:09;;;;;;;22.13;8.00;;;15.10;91.90;;;;;;5050359;28;20041;-69
2021/12/25 15:25:25;;;;;;;15.15;7.57;;;15.10;91.90;;;;;;5050761;28;20052;-69
2021/12/25 15:28:29;;;;;;;17.05;9.20;;;15.10;92.00;;;;;;5050381;28;20047;-69
2021/12/25 15:31:33;;;;;;;17.80;7.18;;;15.10;92.10;;;;;;5050415;28;20052;-66
2021/12/25 15:34:49;;;;;;;11.77;7.30;;;15.10;92.60;;;;;;5050225;28;20056;-69
2021/12/25 15:37:54;;;;;;;14.43;7.95;;;15.10;92.10;;;;;;5050524;28;20040;-69
2021/12/25 15:40:58;;;;;;;13.10;6.60;;;15.10;91.80;;;;;;5050332;28;20040;-69
2021/12/25 15:44:02;;;;;;;12.95;7.03;;;15.10;92.10;;;;;;5053118;28;20040;-69
2021/12/25 15:47:06;;;;;;;11.77;7.47;;;15.10;92.10;;;;;;5053375;28;20060;-69
2021/12/25 15:50:13;;;;;;;14.10;8.00;;;15.10;92.10;;;;;;5054039;28;20400;-69
2021/12/25 15:53:17;;;;;;;17.98;7.75;;;15.10;92.30;;;;;;5054009;28;20048;-70
2021/12/25 15:56:22;;;;;;;20.60;8.23;;;15.00;92.50;;;;;;5054157;28;20044;-71
2021/12/25 15:59:29;;;;;;;17.48;7.32;;;15.10;92.40;;;;;;5053882;28;20044;-70
2021/12/25 16:02:33;;;;;;;14.18;6.88;;;15.00;92.30;;;;;;5053737;28;20052;-70
2021/12/25 16:05:37;;;;;;;11.38;6.32;;;15.00;92.30;;;;;;5053721;28;20040;-70
2021/12/25 16:08:42;;;;;;;13.00;6.97;;;15.00;92.30;;;;;;5053585;28;20040;-71
2021/12/25 16:11:46;;;;;;;12.90;6.72;;;15.00;92.40;;;;;;5054021;28;20051;-70
2021/12/25 16:14:50;;;;;;;9.52;5.35;;;15.00;92.50;;;;;;5053564;28;20040;-70
2021/12/25 16:17:55;;;;;;;14.88;7.18;;;15.00;92.40;;;;;;5053512;28;20044;-70
2021/12/25 16:20:59;;;;;;;12.75;5.97;;;15.00;92.40;;;;;;5053339;28;20405;-70
2021/12/25 16:24:05;;;;;;;13.65;6.90;;;15.00;92.40;;;;;;5053335;28;20036;-70
2021/12/25 16:27:09;;;;;;;14.13;7.53;;;15.00;92.30;;;;;;5053413;28;20044;-70
2021/12/25 16:30:26;;;;;;;15.27;8.27;;;15.00;92.40;;;;;;5053188;28;20044;-70
2021/12/25 16:33:30;;;;;;;18.75;7.00;;;15.00;92.70;;;;;;5053152;28;20063;-69
2021/12/25 16:36:35;;;;;;;18.35;7.30;;;15.00;92.90;;;;;;5053225;28;20048;-70
2021/12/25 16:39:41;;;;;;;20.27;8.57;;;15.00;93.20;;;;;;5053171;28;20048;-70
2021/12/25 16:42:45;;;;;;;13.57;7.10;;;15.00;93.40;;;;;;5053408;28;20044;-71
2021/12/25 16:45:49;;;;;;;16.70;7.10;;;15.00;93.10;;;;;;5053051;28;20048;-71
2021/12/25 16:48:53;;;;;;;16.83;7.65;;;15.00;93.10;;;;;;5053010;28;20492;-70
2021/12/25 16:51:57;;;;;;;21.92;9.88;;;15.00;93.00;;;;;;5052826;28;20064;-70
2021/12/25 16:55:01;;;;;;;21.70;9.57;;;15.00;93.10;;;;;;5051985;28;20047;-71
2021/12/25 16:58:14;;;;;;;23.02;13.10;;;15.00;93.20;;;;;;5052871;28;20519;-71
2021/12/25 17:01:19;;;;;;;22.73;12.43;;;15.00;93.50;;;;;;5053064;28;20083;-70
2021/12/25 17:04:24;;;;;;;23.10;12.13;;;15.00;93.70;;;;;;5052892;28;20492;-70
2021/12/25 17:07:29;;;;;;;17.88;6.45;;;15.00;94.00;;;;;;5053112;28;20044;-70
2021/12/25 17:10:33;;;;;;;17.73;6.78;;;15.00;93.90;;;;;;5051945;28;20052;-70
2021/12/25 17:13:38;;;;;;;23.85;8.63;;;15.00;94.10;;;;;;5052589;28;20044;-70
2021/12/25 17:16:43;;;;;;;16.40;7.93;;;15.00;94.00;;;;;;5053359;28;20039;-70
2021/12/25 17:19:47;;;;;;;20.88;7.90;;;15.00;93.90;;;;;;5052708;28;20052;-70
2021/12/25 17:22:51;;;;;;;19.10;7.85;;;15.00;93.90;;;;;;5052424;28;20408;-71
2021/12/25 17:25:56;;;;;;;17.35;7.88;;;15.00;93.90;;;;;;5052770;28;20068;-71